Time;durP1;ratioP1;P1;durP2;ratioP2;P2;SDS_P1;SDS_P2;PMS_P1;PMS_P2;Temp;Humidity;BMP_temperature;BMP_pressure;BME280_temperature;BME280_humidity;BME280_pressure;Samples;Min_cycle;Max_cycle;Signal;HPM_P1;HPM_P2
2023/07/31 00:02:23;;;;;;;1.83;1.05;;;14.60;99.90;14.50;100243.00;;;;4970083;28;88127;-63
2023/07/31 00:04:49;;;;;;;7.13;1.55;;;14.50;99.90;14.50;100246.00;;;;4971908;28;108926;-63
2023/07/31 00:07:15;;;;;;;2.10;1.17;;;14.50;99.90;14.50;100243.00;;;;4968241;28;115740;-62
2023/07/31 00:09:40;;;;;;;1.65;0.80;;;14.50;99.90;14.50;100237.00;;;;4970542;28;117766;-63
2023/07/31 00:12:07;;;;;;;1.37;1.27;;;14.50;99.90;14.40;100244.00;;;;4976336;28;111206;-61
2023/07/31 00:14:32;;;;;;;3.25;1.13;;;14.40;99.90;14.40;100232.00;;;;4969785;28;98143;-63
2023/07/31 00:16:58;;;;;;;2.13;1.20;;;14.40;99.90;14.40;100235.00;;;;4973100;28;117963;-63
2023/07/31 00:19:23;;;;;;;1.90;1.33;;;14.40;99.90;14.40;100235.00;;;;4975851;28;92990;-63
2023/07/31 00:21:49;;;;;;;1.33;1.23;;;14.30;99.90;14.30;100231.00;;;;4972582;28;108473;-64
2023/07/31 00:24:15;;;;;;;1.23;1.13;;;14.30;99.90;14.30;100230.00;;;;4970538;28;106112;-63
2023/07/31 00:26:40;;;;;;;1.20;1.10;;;14.30;99.90;14.30;100228.00;;;;4974853;28;116903;-63
2023/07/31 00:29:06;;;;;;;1.77;0.98;;;14.30;99.90;14.30;100231.00;;;;4967562;28;117339;-62
2023/07/31 00:31:32;;;;;;;1.83;1.13;;;14.30;99.90;14.30;100220.00;;;;4971586;28;101832;-63
2023/07/31 00:33:57;;;;;;;1.08;0.90;;;14.20;99.90;14.20;100218.00;;;;4973578;28;108844;-63
2023/07/31 00:36:23;;;;;;;3.22;1.27;;;14.20;99.90;14.30;100219.00;;;;4974530;28;116411;-64
2023/07/31 00:38:49;;;;;;;1.07;0.97;;;14.20;99.90;14.30;100218.00;;;;4968027;28;107563;-64
2023/07/31 00:41:14;;;;;;;0.73;0.68;;;14.30;99.90;14.30;100215.00;;;;4974101;28;87706;-64
2023/07/31 00:43:40;;;;;;;1.77;1.13;;;14.30;99.90;14.30;100217.00;;;;4973010;28;108559;-62
2023/07/31 00:46:07;;;;;;;0.85;0.73;;;14.30;99.90;14.30;100212.00;;;;4973862;28;116099;-63
2023/07/31 00:48:33;;;;;;;3.03;1.43;;;14.30;99.90;14.30;100206.00;;;;4968165;28;111834;-63
2023/07/31 00:51:00;;;;;;;1.77;0.97;;;14.30;99.90;14.30;100206.00;;;;4968008;28;98803;-63
2023/07/31 00:53:27;;;;;;;1.33;0.93;;;14.30;99.90;14.30;100202.00;;;;4973133;28;88669;-63
2023/07/31 00:55:53;;;;;;;1.50;0.73;;;14.40;99.90;14.30;100200.00;;;;4970315;28;89473;-63
2023/07/31 00:58:19;;;;;;;1.33;0.82;;;14.30;99.90;14.30;100200.00;;;;4975479;28;93139;-64
2023/07/31 01:00:44;;;;;;;0.63;0.63;;;14.30;99.90;14.30;100197.00;;;;4967371;28;108373;-64
2023/07/31 01:03:11;;;;;;;2.43;1.40;;;14.30;99.90;14.30;100195.00;;;;4970918;28;107783;-64
2023/07/31 01:05:52;;;;;;;2.33;1.05;;;14.30;99.90;14.30;100206.00;;;;4971617;28;117757;-63
2023/07/31 01:08:48;;;;;;;0.88;0.63;;;14.30;99.90;14.20;100201.00;;;;4974050;28;105352;-64
2023/07/31 01:11:27;;;;;;;0.77;0.77;;;14.30;99.90;14.20;100202.00;;;;4972373;28;87114;-64
2023/07/31 01:13:55;;;;;;;1.03;1.03;;;14.20;99.90;14.20;100199.00;;;;4972326;28;100745;-64
2023/07/31 01:16:20;;;;;;;1.93;1.50;;;14.20;99.90;14.20;100195.00;;;;4974312;28;88448;-64
2023/07/31 01:18:46;;;;;;;4.47;1.42;;;14.00;99.90;14.20;100198.00;;;;4972236;28;118038;-64
2023/07/31 01:21:45;;;;;;;1.73;1.47;;;14.10;99.90;14.10;100197.00;;;;4971916;28;109084;-63
2023/07/31 01:24:30;;;;;;;1.23;1.13;;;14.10;99.90;14.10;100191.00;;;;4969181;28;102537;-64
2023/07/31 01:27:04;;;;;;;3.17;1.02;;;14.20;99.90;14.10;100186.00;;;;4967039;28;87871;-63
2023/07/31 01:29:55;;;;;;;2.25;1.15;;;14.10;99.90;14.10;100180.00;;;;4972477;28;110177;-63
2023/07/31 01:32:22;;;;;;;0.80;0.60;;;14.10;99.90;14.10;100179.00;;;;4971432;28;101544;-63
2023/07/31 01:34:49;;;;;;;1.00;0.88;;;14.20;99.90;14.20;100188.00;;;;4970521;28;109053;-62
2023/07/31 01:37:14;;;;;;;1.80;1.02;;;14.10;99.90;14.20;100183.00;;;;4969134;28;116400;-63
2023/07/31 01:39:40;;;;;;;3.10;0.90;;;14.10;99.90;14.20;100185.00;;;;4970176;28;117305;-64
2023/07/31 01:42:07;;;;;;;1.20;0.98;;;14.20;99.90;14.20;100183.00;;;;4975361;28;110580;-63
2023/07/31 01:44:33;;;;;;;0.98;0.70;;;14.20;99.90;14.30;100179.00;;;;4971614;28;89203;-63
2023/07/31 01:47:00;;;;;;;5.13;1.33;;;14.20;99.90;14.30;100179.00;;;;4972091;28;116680;-63
2023/07/31 01:49:26;;;;;;;0.63;0.63;;;14.30;99.90;14.30;100172.00;;;;4968606;28;88035;-62
2023/07/31 01:51:51;;;;;;;1.30;0.75;;;14.30;99.90;14.40;100178.00;;;;4975407;28;87805;-64
2023/07/31 01:54:17;;;;;;;0.93;0.93;;;14.30;99.90;14.40;100176.00;;;;4974592;28;88475;-63
2023/07/31 01:56:43;;;;;;;0.82;0.80;;;14.30;99.90;14.40;100168.00;;;;4970563;28;118441;-63
2023/07/31 01:59:08;;;;;;;1.10;1.00;;;14.40;99.90;14.50;100170.00;;;;4967827;28;115482;-62
2023/07/31 02:01:34;;;;;;;1.10;0.90;;;14.40;99.90;14.50;100168.00;;;;4971372;28;112026;-63
2023/07/31 02:04:00;;;;;;;1.75;1.17;;;14.50;99.90;14.50;100167.00;;;;4971889;28;87624;-62
2023/07/31 02:06:26;;;;;;;1.65;0.85;;;14.50;99.90;14.60;100166.00;;;;4971347;28;90035;-62
2023/07/31 02:08:52;;;;;;;2.28;1.30;;;14.50;99.90;14.60;100166.00;;;;4973987;28;115909;-61
2023/07/31 02:11:18;;;;;;;1.13;0.98;;;14.50;99.90;14.60;100156.00;;;;4973133;28;98441;-61
2023/07/31 02:13:43;;;;;;;1.45;1.23;;;14.60;99.90;14.60;100159.00;;;;4974885;28;108955;-63
2023/07/31 02:16:09;;;;;;;1.15;0.88;;;14.60;99.90;14.60;100160.00;;;;4972976;28;117180;-64
2023/07/31 02:18:35;;;;;;;0.70;0.68;;;14.60;99.90;14.70;100151.00;;;;4971276;28;117359;-63
2023/07/31 02:21:00;;;;;;;1.67;1.10;;;14.60;99.90;14.70;100160.00;;;;4971861;27;101971;-64
2023/07/31 02:23:26;;;;;;;3.15;1.10;;;14.60;99.90;14.70;100152.00;;;;4972834;28;107865;-63
2023/07/31 02:25:52;;;;;;;1.08;1.08;;;14.60;99.90;14.70;100149.00;;;;4973637;28;116880;-64
2023/07/31 02:28:17;;;;;;;2.03;0.95;;;14.60;99.90;14.70;100153.00;;;;4969156;28;115000;-63
2023/07/31 02:30:47;;;;;;;1.13;0.75;;;14.60;99.90;14.70;100153.00;;;;4969445;28;109280;-63
2023/07/31 02:33:15;;;;;;;1.60;0.90;;;14.60;99.90;14.70;100158.00;;;;4970717;28;88890;-64
2023/07/31 02:35:40;;;;;;;3.78;1.45;;;14.60;99.90;14.70;100162.00;;;;4974468;28;88616;-63
2023/07/31 02:38:06;;;;;;;0.68;0.68;;;14.60;99.90;14.70;100157.00;;;;4969866;28;117552;-63
2023/07/31 02:40:32;;;;;;;2.83;1.00;;;14.60;99.90;14.70;100155.00;;;;4970844;28;105029;-64
2023/07/31 02:42:57;;;;;;;2.20;0.98;;;14.70;99.90;14.70;100152.00;;;;4974339;28;108910;-64
2023/07/31 02:45:23;;;;;;;2.08;1.23;;;14.70;99.90;14.80;100145.00;;;;4970710;28;113445;-64
2023/07/31 02:47:49;;;;;;;3.13;0.47;;;14.70;99.90;14.80;100144.00;;;;4971976;28;114506;-64
2023/07/31 02:50:14;;;;;;;0.65;0.65;;;14.80;99.90;14.80;100150.00;;;;4968058;28;109969;-64
2023/07/31 02:52:40;;;;;;;2.95;0.90;;;14.80;99.90;14.90;100150.00;;;;4971165;28;109905;-64
2023/07/31 02:55:06;;;;;;;1.10;1.00;;;14.80;99.90;14.90;100152.00;;;;4967661;28;117765;-63
2023/07/31 02:57:32;;;;;;;0.63;0.63;;;14.80;99.90;14.90;100141.00;;;;4974720;28;109319;-63
2023/07/31 02:59:58;;;;;;;1.65;0.90;;;14.90;99.90;15.00;100147.00;;;;4978715;28;87965;-63
2023/07/31 03:02:23;;;;;;;8.73;1.13;;;14.90;99.90;15.00;100149.00;;;;4975360;28;88059;-63
2023/07/31 03:04:49;;;;;;;1.58;1.42;;;14.90;99.90;15.00;100139.00;;;;4973085;28;118153;-63
2023/07/31 03:07:15;;;;;;;0.85;0.60;;;14.90;99.90;15.00;100143.00;;;;4971960;28;114542;-63
2023/07/31 03:09:40;;;;;;;2.20;1.00;;;15.00;99.90;15.00;100142.00;;;;4973660;28;111466;-63
2023/07/31 03:12:07;;;;;;;0.80;0.70;;;15.00;99.90;15.00;100138.00;;;;4969831;28;87968;-64
2023/07/31 03:14:32;;;;;;;1.08;0.75;;;15.00;99.90;15.10;100144.00;;;;4972006;28;87742;-64
2023/07/31 03:16:59;;;;;;;1.08;0.95;;;15.00;99.90;15.10;100136.00;;;;4970602;28;118594;-65
2023/07/31 03:19:25;;;;;;;0.63;0.63;;;15.00;99.90;15.10;100139.00;;;;4966518;28;110142;-64
2023/07/31 03:21:50;;;;;;;2.35;1.33;;;15.10;99.90;15.20;100141.00;;;;4971813;28;107966;-65
2023/07/31 03:24:16;;;;;;;1.45;0.77;;;15.10;99.90;15.20;100143.00;;;;4966178;28;117126;-64
2023/07/31 03:26:42;;;;;;;1.27;1.17;;;15.20;99.90;15.30;100138.00;;;;4976426;28;96649;-63
2023/07/31 03:29:08;;;;;;;0.75;0.75;;;15.20;99.90;15.30;100136.00;;;;4975780;28;87433;-65
2023/07/31 03:31:34;;;;;;;2.15;1.15;;;15.20;99.90;15.40;100144.00;;;;4968973;28;88071;-64
2023/07/31 03:33:59;;;;;;;0.93;0.80;;;15.30;99.90;15.40;100143.00;;;;4969604;28;118403;-64
2023/07/31 03:36:25;;;;;;;3.03;0.95;;;15.30;99.90;15.40;100134.00;;;;4971907;28;117084;-64
2023/07/31 03:38:52;;;;;;;1.15;0.90;;;15.40;99.90;15.50;100139.00;;;;4967923;28;86945;-64
2023/07/31 03:41:18;;;;;;;0.57;0.52;;;15.40;99.90;15.60;100150.00;;;;4971125;28;101636;-64
2023/07/31 03:43:43;;;;;;;2.30;1.30;;;15.50;99.90;15.60;100149.00;;;;4971661;28;88592;-64
2023/07/31 03:46:09;;;;;;;2.05;0.75;;;15.50;99.90;15.70;100147.00;;;;4965620;28;117331;-64
2023/07/31 03:48:34;;;;;;;2.28;0.93;;;15.50;99.90;15.70;100141.00;;;;4973818;28;107789;-63
2023/07/31 03:51:00;;;;;;;1.73;1.20;;;15.60;99.90;15.80;100141.00;;;;4974809;28;107803;-63
2023/07/31 03:53:29;;;;;;;0.52;0.47;;;15.70;99.90;15.90;100143.00;;;;4972020;28;116662;-62
2023/07/31 03:55:54;;;;;;;0.40;0.40;;;15.70;99.90;15.90;100148.00;;;;4973408;28;117628;-63
2023/07/31 03:58:20;;;;;;;2.47;1.02;;;15.80;99.90;16.00;100147.00;;;;4972542;28;111737;-63
2023/07/31 04:00:46;;;;;;;0.82;0.82;;;15.80;99.90;16.00;100153.00;;;;4972757;28;108737;-64
2023/07/31 04:03:12;;;;;;;1.08;0.80;;;15.90;99.90;16.00;100161.00;;;;4972771;28;115987;-64
2023/07/31 04:05:39;;;;;;;3.70;1.20;;;15.90;99.90;15.90;100154.00;;;;4971853;28;87910;-64
2023/07/31 04:08:05;;;;;;;1.10;0.50;;;15.90;99.90;15.90;100158.00;;;;4968816;28;87458;-64
2023/07/31 04:10:33;;;;;;;3.88;0.88;;;15.80;99.90;15.80;100164.00;;;;4970774;28;102856;-64
2023/07/31 04:13:00;;;;;;;1.08;0.73;;;15.70;99.90;15.80;100152.00;;;;4972324;28;87802;-64
2023/07/31 04:15:26;;;;;;;0.93;0.85;;;15.70;99.90;15.70;100153.00;;;;4972953;28;88367;-64
2023/07/31 04:17:51;;;;;;;0.60;0.60;;;15.60;99.90;15.60;100161.00;;;;4971695;28;100859;-64
2023/07/31 04:20:17;;;;;;;2.05;1.13;;;15.60;99.90;15.50;100150.00;;;;4966982;28;87725;-65
2023/07/31 04:22:43;;;;;;;3.15;1.25;;;15.50;99.90;15.40;100146.00;;;;4970990;28;117698;-65
2023/07/31 04:25:08;;;;;;;3.67;1.67;;;15.40;99.90;15.40;100143.00;;;;4967333;28;118108;-65
2023/07/31 04:27:34;;;;;;;1.50;1.08;;;15.40;99.90;15.30;100144.00;;;;4973148;28;111800;-66
2023/07/31 04:30:00;;;;;;;3.88;1.02;;;15.30;99.90;15.30;100151.00;;;;4973134;28;108030;-66
2023/07/31 04:32:25;;;;;;;5.68;1.05;;;15.20;99.90;15.20;100145.00;;;;4975996;28;112147;-66
2023/07/31 04:34:51;;;;;;;4.35;0.90;;;15.10;99.90;15.20;100147.00;;;;4971950;28;116693;-65
2023/07/31 04:37:17;;;;;;;1.20;0.90;;;15.10;99.90;15.20;100147.00;;;;4971333;28;109861;-65
2023/07/31 04:39:42;;;;;;;1.90;1.25;;;15.10;99.90;15.20;100140.00;;;;4972901;28;107741;-66
2023/07/31 04:42:08;;;;;;;1.10;0.80;;;15.10;99.90;15.10;100135.00;;;;4974462;28;88396;-66
2023/07/31 04:44:34;;;;;;;0.70;0.70;;;15.10;99.90;15.10;100132.00;;;;4968671;28;118323;-66
2023/07/31 04:46:59;;;;;;;1.58;0.93;;;15.10;99.90;15.10;100129.00;;;;4969241;28;110952;-66
2023/07/31 04:49:25;;;;;;;2.17;0.73;;;15.10;99.90;15.10;100126.00;;;;4970029;28;87956;-65
2023/07/31 04:51:51;;;;;;;1.15;0.80;;;15.10;99.90;15.10;100123.00;;;;4977600;28;117212;-66
2023/07/31 04:54:17;;;;;;;1.15;1.05;;;15.10;99.90;15.20;100124.00;;;;4969172;28;117168;-66
2023/07/31 04:56:42;;;;;;;1.40;0.85;;;15.10;99.90;15.20;100132.00;;;;4960009;28;88003;-66
2023/07/31 04:59:08;;;;;;;3.28;1.42;;;15.00;99.90;15.20;100123.00;;;;4971741;28;108295;-65
2023/07/31 05:01:33;;;;;;;2.13;1.63;;;15.10;99.90;15.20;100125.00;;;;4972118;28;115913;-65
2023/07/31 05:03:59;;;;;;;2.42;1.33;;;15.10;99.90;15.20;100120.00;;;;4971947;28;108834;-66
2023/07/31 05:06:25;;;;;;;0.82;0.82;;;15.10;99.90;15.20;100117.00;;;;4975303;28;110755;-67
2023/07/31 05:08:50;;;;;;;1.27;1.13;;;15.10;99.90;15.20;100115.00;;;;4974235;28;108784;-65
2023/07/31 05:11:16;;;;;;;1.17;1.08;;;15.10;99.90;15.20;100119.00;;;;4971308;28;117370;-66
2023/07/31 05:13:42;;;;;;;4.13;1.15;;;15.10;99.90;15.10;100113.00;;;;4970386;28;88511;-66
2023/07/31 05:16:07;;;;;;;3.35;1.45;;;15.10;99.90;15.20;100117.00;;;;4972433;28;109952;-66
2023/07/31 05:18:33;;;;;;;1.55;1.30;;;15.10;99.90;15.20;100112.00;;;;4975327;28;87995;-66
2023/07/31 05:20:59;;;;;;;1.13;1.10;;;15.10;99.90;15.20;100106.00;;;;4967740;28;116566;-66
2023/07/31 05:23:24;;;;;;;1.95;1.30;;;15.10;99.90;15.20;100114.00;;;;4966094;28;116405;-66
2023/07/31 05:26:07;;;;;;;1.27;0.95;;;15.10;99.90;15.20;100105.00;;;;4969367;28;110816;-66
2023/07/31 05:28:35;;;;;;;1.65;1.33;;;15.20;99.90;15.20;100098.00;;;;4968289;28;88266;-66
2023/07/31 05:31:03;;;;;;;1.25;1.15;;;15.10;99.90;15.20;100104.00;;;;4966118;28;88808;-66
2023/07/31 05:33:28;;;;;;;1.75;0.85;;;15.20;99.90;15.30;100091.00;;;;4973485;28;89072;-65
2023/07/31 05:35:54;;;;;;;2.45;1.80;;;15.20;99.90;15.30;100100.00;;;;4969637;28;110426;-66
2023/07/31 05:38:20;;;;;;;2.25;1.30;;;15.30;99.90;15.30;100095.00;;;;4966733;28;104152;-65
2023/07/31 05:40:46;;;;;;;3.20;1.10;;;15.20;99.90;15.30;100092.00;;;;4969356;28;114620;-64
2023/07/31 05:43:12;;;;;;;4.07;1.25;;;15.20;99.90;15.40;100096.00;;;;4969391;28;106321;-64
2023/07/31 05:45:38;;;;;;;2.45;0.93;;;15.20;99.90;15.40;100085.00;;;;4971127;28;109890;-64
2023/07/31 05:48:04;;;;;;;1.20;0.85;;;15.30;99.90;15.40;100089.00;;;;4966673;28;88817;-65
2023/07/31 05:50:30;;;;;;;1.35;0.93;;;15.30;99.90;15.50;100082.00;;;;4968777;28;110160;-65
2023/07/31 05:52:56;;;;;;;1.88;1.33;;;15.30;99.90;15.50;100086.00;;;;4969399;28;109095;-65
2023/07/31 05:55:21;;;;;;;1.08;1.00;;;15.40;99.90;15.50;100080.00;;;;4967831;28;111225;-65
2023/07/31 05:57:49;;;;;;;3.67;1.23;;;15.40;99.90;15.50;100078.00;;;;4969818;28;87792;-65
2023/07/31 06:00:15;;;;;;;4.43;1.10;;;15.40;99.90;15.60;100087.00;;;;4964531;28;92527;-64
2023/07/31 06:02:41;;;;;;;1.20;1.10;;;15.40;99.90;15.60;100078.00;;;;4966214;28;88599;-64
2023/07/31 06:05:07;;;;;;;1.08;0.98;;;15.50;99.90;15.60;100076.00;;;;4967444;28;110043;-64
2023/07/31 06:07:33;;;;;;;3.85;1.30;;;15.50;99.90;15.60;100073.00;;;;4967792;28;87699;-64
2023/07/31 06:10:04;;;;;;;2.58;1.05;;;15.50;99.90;15.70;100077.00;;;;4967925;28;116823;-63
2023/07/31 06:12:33;;;;;;;1.40;1.25;;;15.50;99.90;15.70;100082.00;;;;4966535;28;88973;-64
2023/07/31 06:14:59;;;;;;;7.35;2.45;;;15.60;99.90;15.70;100076.00;;;;4969396;28;98139;-65
2023/07/31 06:17:26;;;;;;;1.90;1.80;;;15.60;99.90;15.70;100074.00;;;;4973127;28;87807;-63
2023/07/31 06:19:52;;;;;;;1.88;1.30;;;15.60;99.90;15.80;100076.00;;;;4964153;28;88420;-63
2023/07/31 06:22:18;;;;;;;3.58;1.30;;;15.70;99.90;15.80;100076.00;;;;4969125;28;117200;-63
2023/07/31 06:24:44;;;;;;;2.17;0.88;;;15.70;99.90;15.80;100083.00;;;;4966686;28;92992;-64
2023/07/31 06:27:10;;;;;;;4.28;1.17;;;15.70;99.90;15.80;100081.00;;;;4967739;28;87990;-64
2023/07/31 06:29:36;;;;;;;1.48;1.38;;;15.70;99.90;15.80;100089.00;;;;4970002;28;88046;-64
2023/07/31 06:32:03;;;;;;;2.60;1.58;;;15.70;99.90;15.80;100088.00;;;;4970387;28;87712;-63
2023/07/31 06:34:29;;;;;;;1.30;1.20;;;15.70;99.90;15.70;100088.00;;;;4966272;28;88000;-64
2023/07/31 06:36:56;;;;;;;2.10;1.52;;;15.60;99.90;15.70;100091.00;;;;4967063;28;88890;-66
2023/07/31 06:39:22;;;;;;;2.35;1.40;;;15.60;99.90;15.70;100085.00;;;;4967946;28;88622;-66
2023/07/31 06:41:47;;;;;;;0.88;0.73;;;15.60;99.90;15.60;100089.00;;;;4970691;28;88435;-66
2023/07/31 06:44:13;;;;;;;2.10;1.45;;;15.50;99.90;15.60;100095.00;;;;4964933;28;111089;-65
2023/07/31 06:46:39;;;;;;;1.27;0.82;;;15.50;99.90;15.60;100101.00;;;;4972821;28;107885;-63
2023/07/31 06:49:04;;;;;;;1.25;1.10;;;15.50;99.90;15.60;100087.00;;;;4963902;28;117526;-65
2023/07/31 06:51:31;;;;;;;1.83;1.45;;;15.50;99.90;15.70;100086.00;;;;4968268;28;117282;-66
2023/07/31 06:53:59;;;;;;;1.20;1.05;;;15.60;99.90;15.70;100102.00;;;;4968627;28;87371;-65
2023/07/31 06:56:26;;;;;;;4.97;1.80;;;15.60;99.90;15.70;100090.00;;;;4966656;28;109473;-65
2023/07/31 06:58:51;;;;;;;1.50;1.15;;;15.60;99.90;15.70;100091.00;;;;4963163;28;89286;-64
2023/07/31 07:01:17;;;;;;;1.58;1.00;;;15.60;99.90;15.80;100087.00;;;;4965225;28;117156;-65
2023/07/31 07:03:43;;;;;;;8.50;2.08;;;15.70;99.90;15.80;100080.00;;;;4966638;28;111348;-67
2023/07/31 07:06:08;;;;;;;3.45;1.25;;;15.80;99.90;15.80;100092.00;;;;4965442;28;101529;-63
2023/07/31 07:08:34;;;;;;;3.35;1.55;;;15.70;99.90;15.80;100082.00;;;;4964913;28;116946;-63
2023/07/31 07:10:59;;;;;;;2.08;1.00;;;15.70;99.90;15.80;100093.00;;;;4965144;28;116314;-62
2023/07/31 07:13:25;;;;;;;2.05;1.50;;;15.70;99.90;15.80;100085.00;;;;4966468;28;109335;-62
2023/07/31 07:15:51;;;;;;;3.05;1.92;;;15.70;99.90;15.80;100092.00;;;;4969562;28;109984;-63
2023/07/31 07:18:17;;;;;;;1.60;1.50;;;15.70;99.90;15.80;100086.00;;;;4966439;28;117188;-63
2023/07/31 07:20:50;;;;;;;4.63;1.80;;;15.70;99.90;15.80;100085.00;;;;4966715;28;87805;-63
2023/07/31 07:23:16;;;;;;;1.30;1.20;;;15.70;99.90;15.90;100095.00;;;;4965332;28;101058;-63
2023/07/31 07:25:43;;;;;;;2.58;1.60;;;15.80;99.90;15.90;100088.00;;;;4967018;28;101684;-63
2023/07/31 07:28:09;;;;;;;2.17;1.33;;;15.80;99.90;15.90;100093.00;;;;4965940;28;88209;-64
2023/07/31 07:30:35;;;;;;;1.55;1.13;;;15.80;99.90;15.90;100089.00;;;;4964695;28;117143;-64
2023/07/31 07:33:01;;;;;;;1.25;0.88;;;15.80;99.90;15.90;100079.00;;;;4967061;28;87839;-63
2023/07/31 07:35:27;;;;;;;4.35;1.40;;;15.80;99.90;15.90;100079.00;;;;4969522;28;108789;-64
2023/07/31 07:37:53;;;;;;;1.52;1.25;;;15.80;99.90;15.90;100086.00;;;;4965481;28;118512;-63
2023/07/31 07:40:19;;;;;;;1.40;1.30;;;15.80;99.90;15.90;100078.00;;;;4967523;28;87839;-63
2023/07/31 07:42:49;;;;;;;1.98;1.17;;;15.80;99.90;15.90;100074.00;;;;4965470;28;90228;-62
2023/07/31 07:45:15;;;;;;;4.45;1.33;;;15.80;99.90;16.00;100080.00;;;;4966989;28;106829;-62
2023/07/31 07:47:42;;;;;;;1.85;1.75;;;15.80;99.90;16.00;100075.00;;;;4967608;28;89153;-62
2023/07/31 07:50:08;;;;;;;3.85;1.65;;;15.90;99.90;16.10;100075.00;;;;4969046;28;88656;-65
2023/07/31 07:52:34;;;;;;;1.48;1.38;;;16.00;99.90;16.20;100078.00;;;;4968672;28;98471;-63
2023/07/31 07:55:00;;;;;;;2.28;1.60;;;16.00;99.90;16.30;100085.00;;;;4970322;28;107999;-63
2023/07/31 07:57:26;;;;;;;1.17;1.13;;;16.10;99.90;16.40;100060.00;;;;4970585;28;118158;-63
2023/07/31 07:59:52;;;;;;;0.90;0.90;;;16.20;99.90;16.50;100073.00;;;;4962840;28;108304;-63
2023/07/31 08:02:18;;;;;;;2.70;1.30;;;16.20;99.90;16.60;100074.00;;;;4970195;28;111141;-63
2023/07/31 08:04:43;;;;;;;4.97;1.48;;;16.50;99.90;16.80;100070.00;;;;4965851;28;110444;-63
2023/07/31 08:07:12;;;;;;;2.28;1.30;;;16.60;99.90;17.00;100076.00;;;;4970494;28;117078;-64
2023/07/31 08:09:38;;;;;;;2.70;0.95;;;16.80;99.90;17.20;100068.00;;;;4969919;28;87647;-66
2023/07/31 08:12:06;;;;;;;2.13;1.38;;;17.00;99.90;17.40;100067.00;;;;4969952;28;87983;-63
2023/07/31 08:14:31;;;;;;;3.90;1.52;;;17.10;99.90;17.50;100052.00;;;;4970762;28;95359;-63
2023/07/31 08:16:57;;;;;;;1.58;1.20;;;17.30;99.90;17.70;100059.00;;;;4969689;28;117640;-64
2023/07/31 08:19:23;;;;;;;1.85;1.33;;;17.50;99.90;17.90;100064.00;;;;4965817;28;117424;-63
2023/07/31 08:21:48;;;;;;;2.83;0.55;;;17.70;99.90;18.00;100061.00;;;;4970228;28;110341;-63
2023/07/31 08:24:14;;;;;;;0.85;0.85;;;17.80;99.90;18.20;100073.00;;;;4969435;28;108554;-63
2023/07/31 08:26:40;;;;;;;1.45;1.35;;;18.00;99.90;18.20;100058.00;;;;4971421;28;88666;-63
2023/07/31 08:29:06;;;;;;;1.20;1.10;;;18.10;99.90;18.30;100066.00;;;;4970563;28;88728;-62
2023/07/31 08:31:31;;;;;;;1.10;0.90;;;18.10;99.90;18.40;100077.00;;;;4970845;28;109793;-62
2023/07/31 08:33:57;;;;;;;1.55;0.85;;;18.30;99.90;18.50;100068.00;;;;4974507;28;108459;-62
2023/07/31 08:36:23;;;;;;;2.78;1.20;;;18.30;99.90;18.50;100081.00;;;;4969501;28;88708;-64
2023/07/31 08:38:49;;;;;;;1.63;1.17;;;18.40;99.90;18.60;100073.00;;;;4969254;28;117182;-63
2023/07/31 08:41:17;;;;;;;1.40;0.98;;;18.40;99.90;18.70;100066.00;;;;4966820;28;87514;-63
2023/07/31 08:43:45;;;;;;;1.58;1.10;;;18.50;99.90;18.70;100061.00;;;;4976436;28;88016;-62
2023/07/31 08:46:11;;;;;;;3.15;1.13;;;18.60;99.90;18.70;100058.00;;;;4969856;28;88351;-62
2023/07/31 08:48:40;;;;;;;3.63;1.58;;;18.60;99.90;18.70;100055.00;;;;4967600;28;88227;-62
2023/07/31 08:51:07;;;;;;;1.40;0.98;;;18.60;99.90;18.70;100064.00;;;;4964998;28;87885;-64
2023/07/31 08:53:32;;;;;;;0.80;0.80;;;18.60;99.90;18.70;100060.00;;;;4970241;28;87815;-64
2023/07/31 08:55:59;;;;;;;1.50;1.08;;;18.60;99.90;18.80;100062.00;;;;4974710;28;87095;-64
2023/07/31 08:58:27;;;;;;;2.15;1.00;;;18.60;99.90;18.80;100063.00;;;;4972401;28;88072;-64
2023/07/31 09:00:54;;;;;;;1.38;0.90;;;18.60;99.90;18.80;100058.00;;;;4971309;28;87742;-63
2023/07/31 09:03:23;;;;;;;1.58;0.75;;;18.70;99.90;18.80;100069.00;;;;4969361;28;88619;-63
2023/07/31 09:05:50;;;;;;;1.10;1.00;;;18.70;99.90;18.80;100068.00;;;;4983535;28;88352;-65
2023/07/31 09:08:20;;;;;;;0.73;0.73;;;18.70;99.90;18.90;100065.00;;;;4969046;28;88323;-64
2023/07/31 09:10:46;;;;;;;1.42;0.73;;;18.80;99.90;18.90;100064.00;;;;4975803;28;87895;-65
2023/07/31 09:13:13;;;;;;;4.72;1.17;;;18.80;99.90;19.00;100070.00;;;;4972720;28;87870;-65
2023/07/31 09:15:41;;;;;;;0.63;0.63;;;18.90;99.90;19.10;100057.00;;;;4968237;28;89113;-64
2023/07/31 09:18:07;;;;;;;0.45;0.45;;;18.90;99.90;19.10;100052.00;;;;4965818;28;88022;-64
2023/07/31 09:20:33;;;;;;;1.73;1.23;;;19.00;99.90;19.30;100062.00;;;;4963535;28;88328;-64
2023/07/31 09:23:11;;;;;;;1.83;1.23;;;19.10;99.90;19.30;100056.00;;;;4967916;28;87981;-64
2023/07/31 09:25:38;;;;;;;1.00;0.85;;;19.20;99.90;19.40;100056.00;;;;4968245;28;88753;-65
2023/07/31 09:28:10;;;;;;;1.95;1.20;;;19.20;99.90;19.40;100052.00;;;;4966066;28;88937;-64
2023/07/31 09:30:51;;;;;;;0.55;0.52;;;19.30;99.90;19.50;100032.00;;;;4965801;28;87674;-66
2023/07/31 09:33:19;;;;;;;0.52;0.52;;;19.30;99.90;19.70;100049.00;;;;4963439;28;98604;-64
2023/07/31 09:35:45;;;;;;;1.02;0.45;;;19.50;99.90;19.90;100044.00;;;;4971230;28;88686;-64
2023/07/31 09:38:12;;;;;;;2.03;0.60;;;19.60;99.90;20.00;100045.00;;;;4966752;28;87806;-65
2023/07/31 09:40:40;;;;;;;1.13;0.63;;;19.80;99.90;20.10;100048.00;;;;4969320;28;87828;-64
2023/07/31 09:43:12;;;;;;;2.20;0.90;;;19.90;99.90;20.20;100049.00;;;;4966125;28;87809;-64
2023/07/31 09:45:42;;;;;;;0.85;0.73;;;20.00;99.90;20.10;100055.00;;;;4970819;28;109488;-64
2023/07/31 09:48:16;;;;;;;0.93;0.93;;;20.00;99.90;20.00;100066.00;;;;4964779;28;107015;-63
2023/07/31 09:50:47;;;;;;;2.58;0.88;;;19.90;99.90;20.00;100061.00;;;;4962561;28;87845;-63
2023/07/31 09:53:15;;;;;;;1.27;0.90;;;19.80;99.90;19.90;100059.00;;;;4968733;28;88848;-64
2023/07/31 09:55:42;;;;;;;1.55;1.00;;;19.80;99.90;20.00;100061.00;;;;4971996;28;96336;-64
2023/07/31 09:58:10;;;;;;;0.65;0.60;;;19.80;99.90;19.90;100042.00;;;;4967172;28;89330;-65
2023/07/31 10:00:36;;;;;;;1.80;1.23;;;19.80;99.90;19.90;100054.00;;;;4971190;28;87956;-64
2023/07/31 10:03:07;;;;;;;1.15;0.85;;;19.80;99.90;19.90;100054.00;;;;4967794;28;88284;-63
2023/07/31 10:05:40;;;;;;;0.85;0.85;;;19.80;99.90;19.90;100053.00;;;;4966869;28;88757;-65
2023/07/31 10:08:09;;;;;;;4.38;0.77;;;19.80;99.90;20.00;100050.00;;;;4967629;28;88556;-64
2023/07/31 10:10:36;;;;;;;2.33;0.95;;;19.80;99.90;20.10;100048.00;;;;4971936;28;97941;-65
2023/07/31 10:13:03;;;;;;;1.60;1.10;;;19.90;99.90;20.10;100055.00;;;;4972011;28;87570;-65
2023/07/31 10:15:30;;;;;;;1.05;0.95;;;19.90;99.90;20.20;100045.00;;;;4963884;28;100293;-65
2023/07/31 10:17:57;;;;;;;1.42;1.02;;;20.00;99.90;20.30;100060.00;;;;4965104;28;117932;-67
2023/07/31 10:20:23;;;;;;;1.85;1.00;;;20.10;99.90;20.40;100045.00;;;;4965882;28;108803;-66
2023/07/31 10:22:49;;;;;;;1.50;0.80;;;20.20;99.90;20.40;100034.00;;;;4967897;28;88012;-64
2023/07/31 10:25:19;;;;;;;0.73;0.70;;;20.20;99.90;20.50;100041.00;;;;4969439;28;116410;-64
2023/07/31 10:27:47;;;;;;;3.35;1.48;;;20.30;99.90;20.50;100037.00;;;;4970291;28;103738;-64
2023/07/31 10:30:17;;;;;;;1.83;0.88;;;20.40;99.90;20.50;100048.00;;;;4964070;28;90772;-64
2023/07/31 10:32:45;;;;;;;1.30;0.90;;;20.30;99.90;20.50;100039.00;;;;4968602;28;96099;-65
2023/07/31 10:35:11;;;;;;;0.40;0.40;;;20.30;99.90;20.50;100050.00;;;;4965870;28;87657;-63
2023/07/31 10:37:41;;;;;;;1.20;1.08;;;20.40;99.90;20.50;100050.00;;;;4955700;28;115201;-66
2023/07/31 10:40:23;;;;;;;1.25;1.00;;;20.30;99.90;20.50;100037.00;;;;4968683;28;87656;-66
2023/07/31 10:42:52;;;;;;;1.42;0.77;;;20.30;99.90;20.50;100040.00;;;;4969308;28;88689;-65